22:26
Airports
History
Links
Donate
Help keep this website running!
PayPal
Bitcoin
Information on this page is community maintained and may be outdated or inaccurate and is intended for reference only or PC simulator navigating.
Always use approved charts for navigating.
LFMK
Salvaza
Salvaza (LFMK)
Carcassonne, Languedoc-Roussillon, France (11000)
(C)
Lat/Lng:43° 12' 58.04" N / 2° 18' 19.79" E
43.216122 / 2.305496
Elevation:433'ft 132mMSL
ID / ICAO:LFMK
Runways:1
Longest:(10-28) 2,092.1m 6,864ft Asphalt
Controlled:Yes
Distance To
Airport ID:
Airport Radio Frequencies
LFMK ATIS: 120.02
CARCASSONNE MULT: 121
Tower: 121
Nearby VORs <50NM
Nearby NDBs
METARUpdated 06-26-17 22:00 GMT
Altimeter: 29.88
Visibility: 4.3 statute miles
Wind: 0 knots (000°)
Temp: 19°c 66°f
Humidity: 93.9%

METAR: LFMK 262200Z AUTO 00000KT 7000 NSC 19/18 Q1012

(Powered by phpweather)
Runway 10 / 28
Dimensions:2092.1 x 45.1m 6864' x 148'ft
Surface:Asphalt
Edge Lights:Medium intensity
Runway 10 [A]Runway 28 [B]
Heading:096°TH 276°TH
Lat:
Lng:
43° 13' 1.7"N
2° 17' 33.57"E
43° 12' 54.37"N
2° 19' 6.01"E
TDZ:Yes, lighted
User Notes and Comments
Google Map
Nearby Airports
(U) Moussoulens 6.4 NM
LF12 NW 316°
4 Castelnaudary Villeneuve 20.3 NM
LFMW WNW 288°
(U) La Montagne Noire 20.7 NM
LFMG NW 309°
(C) Lezignan-Corbieres 21.7 NM
LFMZ E 97°
(U) Mazamet 23.5 NM
LFCK N 358°
4 Puivert 24.5 NM
LFNW SSW 210°
(U) Revel Montgey 24.6 NM
LFIR NW 318°
VFR Chart
Flight Planning at SkyVector.com